Terminal Aerodrome Forecast
Issued by NWS Chicago, IL

Home | Current Version | Previous Version | Graphics & Text | Print | Product List | Glossary On
Versions: 1 2 3 4 5 6 7 8 9 10 11 12 13 14 15 16 17 18 19 20 21 22 23 24 25 26
140
FTUS43 KLOT 011732
TAFRFD
TAF
KRFD 011732Z 0118/0218 05013KT P6SM VCSH OVC010
     FM012100 04012G18KT 5SM -SHRA OVC012
      TEMPO 0123/0203 3SM RA BR OVC008
     FM020400 03012KT 5SM BR OVC006
     FM021500 03010KT P6SM FEW005 SCT012=

USA.gov is the U.S. government's official web portal to all federal, state and local government web resources and services.